Time;durP1;ratioP1;P1;durP2;ratioP2;P2;SDS_P1;SDS_P2;PMS_P1;PMS_P2;Temp;Humidity;BMP_temperature;BMP_pressure;BME280_temperature;BME280_humidity;BME280_pressure;Samples;Min_cycle;Max_cycle;Signal;HPM_P1;HPM_P2
2023/06/21 00:00:28;;;;;;;9.97;6.03;;;;;;;23.06;75.86;99511.88;5052314;28;20033;-82
2023/06/21 00:02:53;;;;;;;11.18;6.80;;;;;;;22.94;76.37;99525.81;5051235;28;20847;-82
2023/06/21 00:05:19;;;;;;;9.93;6.70;;;;;;;22.85;77.22;99528.75;5053258;28;21228;-82
2023/06/21 00:07:44;;;;;;;9.37;5.83;;;;;;;22.95;76.77;99527.41;5047884;28;20052;-82
2023/06/21 00:10:10;;;;;;;9.05;5.43;;;;;;;22.92;76.87;99528.97;5056722;28;20261;-82
2023/06/21 00:12:36;;;;;;;10.55;6.25;;;;;;;23.02;76.30;99533.19;5055092;28;20029;-82
2023/06/21 00:15:02;;;;;;;9.35;5.90;;;;;;;23.06;76.46;99544.41;5057010;28;20040;-81
2023/06/21 00:17:27;;;;;;;11.50;6.40;;;;;;;23.12;76.02;99547.72;5055263;28;20025;-83
2023/06/21 00:19:55;;;;;;;8.97;5.47;;;;;;;22.88;76.27;99550.28;5047240;28;20029;-81
2023/06/21 00:22:23;;;;;;;11.95;6.20;;;;;;;22.96;76.00;99540.94;5056128;28;20013;-82
2023/06/21 00:24:49;;;;;;;12.98;6.38;;;;;;;22.92;75.74;99548.41;5056397;28;20074;-82
2023/06/21 00:27:15;;;;;;;9.07;4.60;;;;;;;22.95;75.64;99553.25;5066487;28;20040;-82
2023/06/21 00:29:40;;;;;;;9.27;5.20;;;;;;;22.99;75.00;99545.00;5051006;28;20403;-81
2023/06/21 00:32:06;;;;;;;9.10;4.93;;;;;;;23.06;74.29;99549.97;5056008;28;20082;-82
2023/06/21 00:34:31;;;;;;;9.07;4.97;;;;;;;22.85;75.06;99549.00;5055194;28;20025;-82
2023/06/21 00:36:56;;;;;;;7.15;4.32;;;;;;;22.83;74.80;99551.34;5056341;28;20497;-82
2023/06/21 00:39:22;;;;;;;7.23;4.53;;;;;;;22.78;74.77;99559.13;5055771;28;20044;-82
2023/06/21 00:41:47;;;;;;;8.98;4.20;;;;;;;22.73;74.27;99555.44;5053984;28;20730;-82
2023/06/21 00:44:13;;;;;;;7.53;4.32;;;;;;;22.72;74.19;99553.00;5055898;28;20036;-82
2023/06/21 00:46:39;;;;;;;9.40;4.70;;;;;;;22.72;73.79;99564.91;5055962;28;20422;-81
2023/06/21 00:49:04;;;;;;;7.90;4.45;;;;;;;22.70;74.10;99561.69;5055712;28;20288;-82
2023/06/21 00:51:32;;;;;;;7.90;3.92;;;;;;;22.61;74.36;99564.59;5055843;28;20037;-81
2023/06/21 00:53:58;;;;;;;5.10;3.40;;;;;;;22.66;73.67;99555.22;5055582;28;20063;-81
2023/06/21 00:56:23;;;;;;;6.93;3.85;;;;;;;22.73;73.37;99554.63;5055862;28;20021;-80
2023/06/21 00:58:48;;;;;;;6.57;3.33;;;;;;;22.76;72.83;99553.09;5055448;28;20063;-82
2023/06/21 01:01:14;;;;;;;6.40;3.20;;;;;;;22.65;72.89;99553.59;5058595;28;20068;-81
2023/06/21 01:03:40;;;;;;;6.68;3.70;;;;;;;22.57;73.12;99552.56;5055676;28;20258;-81
2023/06/21 01:06:22;;;;;;;7.88;3.45;;;;;;;22.59;72.96;99563.31;5055158;28;20056;-81
2023/06/21 01:09:21;;;;;;;13.88;3.85;;;;;;;22.66;72.20;99571.88;5047102;28;20025;-81
2023/06/21 01:11:55;;;;;;;12.73;4.45;;;;;;;22.67;72.73;99565.16;5054854;28;20029;-81
2023/06/21 01:14:31;;;;;;;7.28;3.45;;;;;;;22.66;72.34;99571.09;5057493;28;20041;-82
2023/06/21 01:17:00;;;;;;;7.57;3.60;;;;;;;22.66;72.56;99582.19;5054185;28;20025;-81
2023/06/21 01:19:47;;;;;;;7.47;3.65;;;;;;;22.50;72.77;99580.91;5054826;28;20495;-80
2023/06/21 01:22:19;;;;;;;8.15;3.80;;;;;;;22.43;73.13;99580.72;5052972;28;20035;-82
2023/06/21 01:25:37;;;;;;;7.65;4.13;;;;;;;22.48;73.10;99590.75;5054567;28;20097;-73
2023/06/21 01:28:27;;;;;;;9.02;4.10;;;;;;;22.33;73.47;99597.84;5029443;28;20029;-73
2023/06/21 01:30:57;;;;;;;7.40;4.18;;;;;;;22.33;73.35;99592.31;5029707;28;20117;-73
2023/06/21 01:33:23;;;;;;;6.15;3.03;;;;;;;22.41;72.62;99588.59;5044550;28;20053;-73
2023/06/21 01:35:49;;;;;;;7.40;3.90;;;;;;;22.20;73.34;99589.53;5055036;28;20123;-81
2023/06/21 01:38:15;;;;;;;5.75;3.15;;;;;;;22.13;73.38;99594.88;5054757;28;20036;-81
2023/06/21 01:40:40;;;;;;;5.22;2.92;;;;;;;22.10;73.63;99606.66;5054978;28;20029;-82
2023/06/21 01:43:06;;;;;;;5.85;2.53;;;;;;;22.10;73.43;99603.88;5055262;28;20031;-82
2023/06/21 01:45:32;;;;;;;5.20;2.95;;;;;;;22.02;73.75;99606.44;5054480;28;20104;-82
2023/06/21 01:47:58;;;;;;;6.20;3.25;;;;;;;22.16;72.92;99608.03;5054047;28;20028;-81
2023/06/21 01:50:25;;;;;;;6.28;3.63;;;;;;;22.23;72.99;99601.91;5055250;28;20036;-81
2023/06/21 01:52:51;;;;;;;6.40;3.60;;;;;;;22.14;72.66;99613.94;5059435;28;20055;-82
2023/06/21 01:55:18;;;;;;;5.70;3.00;;;;;;;22.01;73.24;99615.91;5054851;28;20099;-82
2023/06/21 01:57:43;;;;;;;5.45;2.80;;;;;;;21.83;73.42;99620.06;5051782;28;20060;-81
2023/06/21 02:00:19;;;;;;;5.72;3.10;;;;;;;21.88;73.76;99611.50;5054186;28;20108;-82
2023/06/21 02:02:55;;;;;;;6.30;3.35;;;;;;;21.87;73.28;99613.47;5053183;28;20095;-82
2023/06/21 02:05:21;;;;;;;6.25;2.78;;;;;;;21.95;73.35;99610.94;5053053;28;20048;-81
2023/06/21 02:07:48;;;;;;;6.25;2.83;;;;;;;21.94;73.16;99610.13;5054631;28;20072;-81
2023/06/21 02:10:15;;;;;;;7.70;3.28;;;;;;;21.65;74.04;99620.22;5054228;28;20131;-82
2023/06/21 02:12:41;;;;;;;6.03;2.60;;;;;;;21.56;74.61;99612.03;5054569;28;20025;-81
2023/06/21 02:15:08;;;;;;;7.13;3.55;;;;;;;21.76;73.79;99615.88;5054305;28;20032;-83
2023/06/21 02:17:34;;;;;;;5.90;2.90;;;;;;;21.70;73.34;99611.69;5064594;28;20091;-82
2023/06/21 02:19:59;;;;;;;4.95;2.92;;;;;;;21.64;74.02;99610.31;5053778;28;20052;-82
2023/06/21 02:22:24;;;;;;;7.67;3.53;;;;;;;21.79;73.64;99619.91;5054146;28;20583;-81
2023/06/21 02:24:49;;;;;;;6.33;3.07;;;;;;;21.92;72.79;99623.53;5054297;28;20333;-82
2023/06/21 02:27:16;;;;;;;7.00;3.80;;;;;;;21.84;72.46;99621.69;5054111;28;20331;-81
2023/06/21 02:29:41;;;;;;;5.88;2.85;;;;;;;21.64;73.34;99626.94;5052616;28;20029;-81
2023/06/21 02:32:07;;;;;;;6.22;2.78;;;;;;;21.56;73.51;99629.47;5053841;28;20032;-82
2023/06/21 02:34:32;;;;;;;8.43;3.63;;;;;;;21.44;73.84;99634.97;5053236;28;20456;-73
2023/06/21 02:36:57;;;;;;;6.33;2.83;;;;;;;21.42;74.27;99637.28;5050882;28;20544;-73
2023/06/21 02:39:24;;;;;;;5.80;2.77;;;;;;;21.66;73.12;99632.97;5050596;28;20048;-73
2023/06/21 02:41:51;;;;;;;12.00;3.83;;;;;;;21.56;72.62;99632.22;5050378;28;20027;-73
2023/06/21 02:44:16;;;;;;;6.97;4.00;;;;;;;21.61;73.03;99639.53;5051092;28;20399;-73
2023/06/21 02:46:41;;;;;;;7.20;3.47;;;;;;;21.57;73.48;99642.19;5050737;28;20067;-73
2023/06/21 02:49:07;;;;;;;6.73;3.27;;;;;;;21.70;73.05;99642.22;5050362;28;20332;-73
2023/06/21 02:51:32;;;;;;;7.00;4.67;;;;;;;21.73;72.57;99649.84;5050876;28;20076;-73
2023/06/21 02:53:57;;;;;;;8.07;3.67;;;;;;;21.62;73.30;99654.22;5053705;28;20766;-73
2023/06/21 02:56:22;;;;;;;8.47;3.27;;;;;;;21.78;72.43;99655.16;5055270;28;20025;-73
2023/06/21 02:58:48;;;;;;;10.47;4.63;;;;;;;21.86;72.09;99663.75;5050148;28;20036;-73
2023/06/21 03:01:13;;;;;;;5.23;3.17;;;;;;;21.84;71.85;99666.06;5050212;28;20019;-73
2023/06/21 03:03:43;;;;;;;8.10;2.88;;;;;;;21.62;72.87;99668.09;5050514;28;20535;-73
2023/06/21 03:06:08;;;;;;;7.45;3.88;;;;;;;21.56;73.07;99670.25;5050357;28;20032;-73
2023/06/21 03:08:35;;;;;;;6.93;3.00;;;;;;;21.33;73.60;99676.19;5050632;28;20403;-73
2023/06/21 03:11:00;;;;;;;7.30;3.60;;;;;;;21.37;73.63;99681.84;5050553;28;21577;-73
2023/06/21 03:13:26;;;;;;;7.17;3.20;;;;;;;21.40;73.85;99681.97;5050646;28;20033;-73
2023/06/21 03:15:51;;;;;;;6.47;2.77;;;;;;;21.39;73.36;99685.09;5050404;28;20528;-73
2023/06/21 03:18:16;;;;;;;5.73;2.80;;;;;;;21.29;73.92;99678.84;5050329;28;20029;-73
2023/06/21 03:20:42;;;;;;;8.03;4.03;;;;;;;21.25;74.58;99674.31;5050599;28;20037;-73
2023/06/21 03:23:07;;;;;;;9.13;4.18;;;;;;;21.37;73.64;99666.03;5050233;28;20654;-73
2023/06/21 03:25:33;;;;;;;5.40;2.97;;;;;;;21.49;73.58;99676.34;5050355;28;20028;-73
2023/06/21 03:27:59;;;;;;;8.13;4.00;;;;;;;21.57;73.10;99680.19;5049878;28;20057;-72
2023/06/21 03:30:25;;;;;;;10.80;5.10;;;;;;;21.55;73.16;99674.19;5050514;28;20090;-73
2023/06/21 03:32:50;;;;;;;6.13;3.08;;;;;;;21.52;73.33;99674.88;5049336;28;20033;-73
2023/06/21 03:35:17;;;;;;;6.82;3.15;;;;;;;21.65;72.61;99670.97;5050259;28;20033;-74
2023/06/21 03:37:43;;;;;;;7.05;4.10;;;;;;;21.61;72.95;99677.53;5050362;28;20029;-73
2023/06/21 03:40:13;;;;;;;5.82;3.25;;;;;;;21.67;72.37;99687.25;5050172;28;20024;-74
2023/06/21 03:42:38;;;;;;;9.57;3.65;;;;;;;21.63;72.40;99687.16;5054566;28;20185;-73
2023/06/21 03:45:04;;;;;;;15.45;3.55;;;;;;;21.65;72.59;99689.56;5054256;28;20127;-73
2023/06/21 03:47:30;;;;;;;6.32;3.45;;;;;;;21.69;72.49;99693.28;5053838;28;20048;-74
2023/06/21 03:49:57;;;;;;;6.45;3.40;;;;;;;21.57;72.92;99700.41;5056336;28;20135;-73
2023/06/21 03:52:23;;;;;;;7.50;4.05;;;;;;;21.49;73.44;99703.28;5051949;28;20094;-72
2023/06/21 03:54:48;;;;;;;8.65;4.13;;;;;;;21.53;72.94;99706.97;5058025;28;20028;-81
2023/06/21 03:57:14;;;;;;;6.80;3.87;;;;;;;21.36;73.92;99710.75;5057307;28;20035;-82
2023/06/21 03:59:39;;;;;;;8.63;3.40;;;;;;;21.45;73.43;99712.28;5058353;28;20274;-81
2023/06/21 04:02:05;;;;;;;6.20;3.00;;;;;;;21.36;73.98;99716.28;5060461;28;20433;-81
2023/06/21 04:04:30;;;;;;;6.82;3.00;;;;;;;21.33;74.38;99715.81;5057013;28;20025;-82
2023/06/21 04:06:55;;;;;;;7.50;3.63;;;;;;;21.26;74.28;99718.31;5056712;28;20390;-81
2023/06/21 04:09:20;;;;;;;9.20;3.40;;;;;;;21.27;74.51;99711.63;5056179;28;20077;-81
2023/06/21 04:11:46;;;;;;;7.13;3.33;;;;;;;21.26;74.48;99718.31;5054744;28;20269;-80
2023/06/21 04:14:11;;;;;;;8.23;4.13;;;;;;;21.19;75.15;99718.03;5054762;28;20020;-80
2023/06/21 04:16:36;;;;;;;10.53;3.90;;;;;;;21.06;75.55;99714.38;5054395;28;20037;-82
2023/06/21 04:19:02;;;;;;;6.23;3.40;;;;;;;21.11;75.66;99719.75;5054534;28;20262;-81
2023/06/21 04:21:27;;;;;;;9.83;3.63;;;;;;;21.18;75.55;99716.41;5055135;28;20483;-81
2023/06/21 04:23:52;;;;;;;6.30;3.47;;;;;;;21.15;75.71;99719.88;5055412;28;20017;-81
2023/06/21 04:26:17;;;;;;;7.27;3.80;;;;;;;21.08;76.04;99715.69;5058638;28;20293;-80
2023/06/21 04:28:43;;;;;;;7.90;3.83;;;;;;;21.13;76.10;99716.63;5056326;28;20047;-80
2023/06/21 04:31:08;;;;;;;6.90;3.40;;;;;;;21.20;76.01;99716.88;5053765;28;20297;-81
2023/06/21 04:33:34;;;;;;;6.77;3.57;;;;;;;21.16;76.41;99727.03;5054955;28;21405;-81
2023/06/21 04:35:59;;;;;;;8.52;4.38;;;;;;;21.31;75.95;99723.66;5054258;28;20250;-81
2023/06/21 04:38:24;;;;;;;8.57;3.27;;;;;;;21.29;76.39;99725.97;5053973;28;20047;-80
2023/06/21 04:40:52;;;;;;;6.50;4.17;;;;;;;21.44;75.99;99723.69;5055532;28;20810;-81
2023/06/21 04:43:18;;;;;;;7.57;3.53;;;;;;;21.44;75.96;99732.00;5052102;28;20482;-81
2023/06/21 04:45:43;;;;;;;6.88;3.50;;;;;;;21.37;76.24;99732.56;5050639;28;20032;-81
2023/06/21 04:48:08;;;;;;;8.57;4.57;;;;;;;21.39;76.38;99737.78;5052414;28;20108;-82
2023/06/21 04:50:33;;;;;;;7.63;3.73;;;;;;;21.48;75.94;99744.03;5053140;28;20021;-81
2023/06/21 04:52:59;;;;;;;7.88;4.43;;;;;;;21.45;76.42;99750.28;5053363;28;20774;-82
2023/06/21 04:55:25;;;;;;;12.27;4.03;;;;;;;21.39;76.78;99746.09;5052144;28;20100;-73
2023/06/21 04:57:50;;;;;;;10.27;4.65;;;;;;;21.26;77.42;99748.78;5052931;28;20021;-73
2023/06/21 05:00:19;;;;;;;6.97;3.83;;;;;;;21.31;77.12;99751.38;5054454;28;20079;-73
2023/06/21 05:02:45;;;;;;;7.82;4.05;;;;;;;21.39;77.08;99746.09;5053080;28;20414;-73
2023/06/21 05:05:11;;;;;;;12.93;4.22;;;;;;;21.45;76.99;99750.28;5054932;28;20047;-82
2023/06/21 05:07:38;;;;;;;13.37;4.63;;;;;;;21.47;76.53;99753.53;5055591;28;20402;-81
2023/06/21 05:10:07;;;;;;;9.25;4.55;;;;;;;21.55;76.49;99760.16;5053668;28;20696;-82
2023/06/21 05:12:32;;;;;;;9.60;5.13;;;;;;;21.50;76.83;99758.38;5055671;28;20025;-82
2023/06/21 05:14:57;;;;;;;8.00;4.47;;;;;;;21.52;76.76;99766.38;5055468;28;20025;-82
2023/06/21 05:17:23;;;;;;;9.53;3.80;;;;;;;21.58;76.53;99765.03;5054354;28;20075;-83
2023/06/21 05:19:49;;;;;;;9.17;5.17;;;;;;;21.60;76.54;99756.34;5055440;28;20405;-82
2023/06/21 05:22:14;;;;;;;8.57;4.28;;;;;;;21.63;76.32;99762.03;5055674;28;20254;-81
2023/06/21 05:24:39;;;;;;;6.63;3.93;;;;;;;21.63;76.92;99769.53;5055324;28;20049;-81
2023/06/21 05:27:05;;;;;;;7.88;4.50;;;;;;;21.60;77.26;99764.69;5055162;28;20258;-82
2023/06/21 05:29:30;;;;;;;12.52;5.43;;;;;;;21.71;77.02;99768.66;5057953;28;20059;-81
2023/06/21 05:31:55;;;;;;;8.65;4.60;;;;;;;21.63;77.41;99772.31;5051634;28;20669;-80
2023/06/21 05:34:20;;;;;;;8.13;3.93;;;;;;;21.70;77.35;99775.34;5055074;28;21282;-81
2023/06/21 05:36:46;;;;;;;10.87;5.27;;;;;;;21.84;76.89;99772.31;5055046;28;20036;-81
2023/06/21 05:39:11;;;;;;;9.37;5.27;;;;;;;21.88;76.75;99778.81;5054663;28;20037;-81
2023/06/21 05:41:36;;;;;;;9.67;5.30;;;;;;;21.81;76.72;99767.41;5055123;28;20029;-82
2023/06/21 05:44:01;;;;;;;8.03;5.27;;;;;;;21.89;76.66;99779.59;5055338;28;20265;-82
2023/06/21 05:46:27;;;;;;;13.40;5.28;;;;;;;21.87;76.70;99787.44;5055002;28;20046;-82
2023/06/21 05:48:52;;;;;;;8.13;4.40;;;;;;;22.02;76.18;99784.06;5054586;28;20112;-82
2023/06/21 05:51:17;;;;;;;11.07;5.30;;;;;;;21.97;76.68;99791.78;5053627;28;20277;-82
2023/06/21 05:53:42;;;;;;;7.93;4.50;;;;;;;21.81;77.10;99801.53;5054715;28;20459;-82
2023/06/21 05:56:08;;;;;;;9.33;5.50;;;;;;;21.86;76.83;99794.97;5053321;28;20467;-82
2023/06/21 05:58:33;;;;;;;9.90;6.17;;;;;;;22.00;76.66;99807.75;5057254;28;20033;-82
2023/06/21 06:00:58;;;;;;;12.03;5.43;;;;;;;22.19;76.38;99812.75;5067054;28;20130;-82
2023/06/21 06:03:24;;;;;;;9.82;5.43;;;;;;;22.20;76.49;99805.25;5054607;28;20262;-82
2023/06/21 06:05:50;;;;;;;11.52;5.88;;;;;;;22.10;76.02;99806.50;5054263;28;20429;-82
2023/06/21 06:08:15;;;;;;;8.27;4.30;;;;;;;22.26;76.05;99795.53;5053486;28;20462;-81
2023/06/21 06:10:41;;;;;;;9.38;5.05;;;;;;;22.35;75.39;99812.13;5054333;28;20071;-84
2023/06/21 06:13:06;;;;;;;9.18;5.05;;;;;;;22.23;75.61;99813.69;5052653;28;20029;-80
2023/06/21 06:15:31;;;;;;;10.43;6.97;;;;;;;22.25;76.11;99830.03;5054318;28;20098;-82
2023/06/21 06:17:56;;;;;;;14.93;5.73;;;;;;;22.34;75.95;99827.13;5049721;28;20152;-81
2023/06/21 06:20:22;;;;;;;14.30;6.60;;;;;;;22.23;76.20;99824.00;5044780;28;20047;-81
2023/06/21 06:22:47;;;;;;;9.27;5.53;;;;;;;22.25;75.90;99827.25;5042904;28;20028;-80
2023/06/21 06:25:13;;;;;;;8.40;4.82;;;;;;;22.35;75.45;99834.31;5044767;28;20290;-81
2023/06/21 06:27:38;;;;;;;10.75;4.70;;;;;;;22.50;75.17;99833.66;5043766;28;20033;-80
2023/06/21 06:30:04;;;;;;;9.63;5.72;;;;;;;22.68;74.55;99835.47;5042998;28;20120;-81
2023/06/21 06:32:30;;;;;;;13.43;6.07;;;;;;;22.74;74.25;99839.59;5043207;28;20120;-81
2023/06/21 06:34:55;;;;;;;10.00;5.95;;;;;;;22.75;73.88;99841.25;5042821;28;20472;-81
2023/06/21 06:37:21;;;;;;;10.57;5.57;;;;;;;22.72;74.11;99844.72;5043263;28;20501;-80
2023/06/21 06:39:46;;;;;;;10.48;4.97;;;;;;;22.78;74.16;99848.88;5041962;28;20048;-79
2023/06/21 06:42:11;;;;;;;10.10;4.80;;;;;;;22.80;73.99;99851.31;5043478;28;20035;-82
2023/06/21 06:44:37;;;;;;;11.75;5.85;;;;;;;22.76;73.89;99855.94;5044025;28;20052;-80
2023/06/21 06:47:02;;;;;;;23.60;5.63;;;;;;;22.63;74.33;99850.34;5042914;28;20144;-80
2023/06/21 06:49:27;;;;;;;9.18;5.38;;;;;;;22.77;74.25;99857.56;5043060;28;20028;-80
2023/06/21 06:51:53;;;;;;;7.67;4.37;;;;;;;22.95;73.96;99855.38;5043012;28;20048;-78
2023/06/21 06:54:18;;;;;;;9.60;5.93;;;;;;;22.79;74.06;99860.78;5043012;28;20395;-80
2023/06/21 06:56:43;;;;;;;9.40;5.83;;;;;;;22.80;74.30;99862.44;5042982;28;20083;-78
2023/06/21 06:59:09;;;;;;;8.03;5.07;;;;;;;22.80;73.93;99865.22;5042879;28;20044;-79
2023/06/21 07:01:34;;;;;;;11.75;6.05;;;;;;;22.88;74.05;99861.53;5042852;28;20033;-81
2023/06/21 07:04:00;;;;;;;10.37;5.73;;;;;;;23.00;73.65;99860.72;5043123;28;20065;-82
2023/06/21 07:06:25;;;;;;;9.63;6.00;;;;;;;23.01;73.88;99864.28;5043433;28;20709;-80
2023/06/21 07:08:50;;;;;;;11.20;7.83;;;;;;;22.85;74.23;99870.53;5043215;28;20064;-79
2023/06/21 07:11:15;;;;;;;14.83;7.50;;;;;;;22.85;74.27;99862.19;5043719;28;20316;-82
2023/06/21 07:13:43;;;;;;;12.33;8.33;;;;;;;22.72;74.41;99870.50;5043391;28;20047;-82
2023/06/21 07:16:09;;;;;;;12.18;7.30;;;;;;;22.71;74.51;99868.91;5043011;28;20068;-81
2023/06/21 07:18:34;;;;;;;11.20;8.03;;;;;;;22.73;74.67;99874.94;5043134;28;20079;-79
2023/06/21 07:20:59;;;;;;;12.48;8.48;;;;;;;22.54;75.17;99869.88;5046286;28;20626;-81
2023/06/21 07:23:27;;;;;;;12.50;7.50;;;;;;;22.67;74.97;99870.75;5049762;28;20025;-79
2023/06/21 07:25:52;;;;;;;11.25;7.97;;;;;;;22.83;74.40;99862.53;5049254;28;20029;-73
2023/06/21 07:28:17;;;;;;;11.77;7.95;;;;;;;22.92;74.12;99861.63;5045762;28;20339;-74
2023/06/21 07:30:43;;;;;;;14.13;7.37;;;;;;;23.11;73.89;99869.38;5042954;28;20037;-73
2023/06/21 07:33:08;;;;;;;11.13;8.07;;;;;;;22.95;74.01;99872.03;5046343;28;20631;-74
2023/06/21 07:35:34;;;;;;;13.18;7.07;;;;;;;22.96;73.83;99868.91;5048152;28;20258;-74
2023/06/21 07:37:59;;;;;;;13.05;8.07;;;;;;;23.07;73.44;99865.66;5042501;28;20029;-73
2023/06/21 07:40:24;;;;;;;14.80;8.07;;;;;;;23.10;72.87;99865.00;5043020;28;20434;-76
2023/06/21 07:42:50;;;;;;;16.95;8.55;;;;;;;23.09;73.12;99868.91;5042694;28;20269;-79
2023/06/21 07:45:15;;;;;;;14.93;7.83;;;;;;;23.28;72.59;99867.50;5042957;28;20533;-75
2023/06/21 07:47:41;;;;;;;12.83;8.90;;;;;;;23.38;72.24;99872.59;5042955;28;20258;-74
2023/06/21 07:50:07;;;;;;;13.65;8.13;;;;;;;23.33;72.15;99870.84;5040701;28;20278;-75
2023/06/21 07:52:32;;;;;;;11.90;8.23;;;;;;;23.37;71.99;99875.75;5042846;28;20047;-75
2023/06/21 07:54:58;;;;;;;12.02;8.43;;;;;;;23.57;71.94;99874.00;5042980;28;20066;-74
2023/06/21 07:57:23;;;;;;;13.23;8.10;;;;;;;23.44;71.81;99882.34;5042707;28;20067;-74
2023/06/21 07:59:48;;;;;;;12.70;7.60;;;;;;;23.48;71.51;99895.56;5041715;28;20277;-71
2023/06/21 08:02:14;;;;;;;12.90;8.50;;;;;;;23.39;71.43;99887.31;5042796;28;20800;-72
2023/06/21 08:04:42;;;;;;;15.15;9.15;;;;;;;23.48;71.34;99899.16;5042091;28;20339;-71
2023/06/21 08:07:07;;;;;;;12.15;8.20;;;;;;;23.72;70.99;99894.69;5041937;28;20069;-72
2023/06/21 08:09:32;;;;;;;14.00;8.25;;;;;;;23.84;70.20;99901.41;5042189;28;20239;-71
2023/06/21 08:11:59;;;;;;;11.07;7.20;;;;;;;23.88;70.32;99896.75;5042573;28;20044;-71
2023/06/21 08:14:25;;;;;;;12.48;8.93;;;;;;;23.74;70.93;99902.69;5042027;28;20513;-73
2023/06/21 08:16:50;;;;;;;14.10;8.60;;;;;;;23.66;70.21;99893.31;5041820;28;20062;-72
2023/06/21 08:19:15;;;;;;;13.00;7.70;;;;;;;23.72;70.52;99894.69;5041611;28;20273;-72
2023/06/21 08:21:40;;;;;;;13.13;7.50;;;;;;;23.71;70.59;99892.28;5041843;28;20029;-72
2023/06/21 08:24:05;;;;;;;12.40;8.57;;;;;;;23.84;70.20;99887.50;5042127;28;20121;-71
2023/06/21 08:26:31;;;;;;;11.53;8.77;;;;;;;23.88;70.09;99888.41;5041878;28;20509;-72
2023/06/21 08:28:56;;;;;;;11.27;7.80;;;;;;;23.98;70.29;99892.66;5044386;28;20079;-73
2023/06/21 08:31:21;;;;;;;15.23;8.73;;;;;;;24.07;68.09;99890.53;5045299;28;20120;-72
2023/06/21 08:33:47;;;;;;;11.35;7.28;;;;;;;23.97;67.38;99891.03;5045189;28;20258;-71
2023/06/21 08:36:12;;;;;;;12.07;7.28;;;;;;;24.01;68.10;99898.31;5045257;28;20037;-70
2023/06/21 08:38:38;;;;;;;15.10;7.60;;;;;;;24.08;67.31;99892.13;5044941;28;20477;-70
2023/06/21 08:41:04;;;;;;;10.13;7.75;;;;;;;24.21;67.18;99897.66;5045253;28;20029;-70
2023/06/21 08:43:31;;;;;;;9.43;6.55;;;;;;;24.44;66.94;99889.56;5045450;28;20048;-70
2023/06/21 08:45:57;;;;;;;14.35;8.55;;;;;;;24.51;66.45;99888.94;5045235;28;20821;-70
2023/06/21 08:48:22;;;;;;;11.80;7.28;;;;;;;24.58;66.59;99896.69;5044168;28;20486;-70
2023/06/21 08:50:49;;;;;;;15.03;9.13;;;;;;;24.70;65.99;99891.03;5044765;28;20033;-71
2023/06/21 08:53:25;;;;;;;11.52;7.50;;;;;;;24.92;65.27;99899.13;5045062;28;20289;-71
2023/06/21 08:55:51;;;;;;;13.38;6.80;;;;;;;25.05;65.73;99897.91;5044834;28;20040;-71
2023/06/21 08:58:21;;;;;;;11.48;7.00;;;;;;;25.03;65.03;99891.88;5044616;28;20035;-70
2023/06/21 09:00:50;;;;;;;14.07;8.32;;;;;;;25.00;65.13;99889.78;5044663;28;20110;-70
2023/06/21 09:03:29;;;;;;;10.65;6.22;;;;;;;25.10;64.37;99894.00;5044748;28;20032;-71
2023/06/21 09:06:02;;;;;;;10.35;6.32;;;;;;;24.98;64.50;99899.72;5044162;28;20061;-71
2023/06/21 09:08:28;;;;;;;10.13;6.45;;;;;;;25.08;64.24;99895.56;5043981;28;20036;-71
2023/06/21 09:10:53;;;;;;;14.10;7.13;;;;;;;24.86;63.92;99894.97;5044356;28;20446;-71
2023/06/21 09:13:19;;;;;;;13.68;7.97;;;;;;;24.49;64.19;99905.19;5044890;28;20037;-71
2023/06/21 09:15:47;;;;;;;10.38;6.75;;;;;;;24.35;63.69;99903.66;5044355;28;20037;-70
2023/06/21 09:18:13;;;;;;;12.65;7.30;;;;;;;24.26;64.14;99908.59;5044302;28;20045;-71
2023/06/21 09:20:38;;;;;;;10.73;7.03;;;;;;;24.24;64.74;99908.13;5044152;28;20455;-71
2023/06/21 09:23:03;;;;;;;10.83;7.20;;;;;;;24.42;64.65;99907.81;5044457;28;20732;-70
2023/06/21 09:25:29;;;;;;;9.57;7.03;;;;;;;24.51;64.47;99913.22;5043707;28;20314;-71
2023/06/21 09:27:55;;;;;;;10.52;6.03;;;;;;;24.78;63.98;99907.94;5044206;28;20258;-71
2023/06/21 09:30:22;;;;;;;10.77;6.22;;;;;;;24.97;64.48;99910.03;5044124;28;20119;-70
2023/06/21 09:32:48;;;;;;;11.43;6.90;;;;;;;24.95;64.74;99909.56;5044069;28;20037;-70
2023/06/21 09:35:16;;;;;;;9.93;6.22;;;;;;;25.09;64.45;99902.75;5044209;28;20402;-74
2023/06/21 09:37:42;;;;;;;9.65;6.68;;;;;;;25.22;64.05;99906.25;5043904;28;20029;-75
2023/06/21 09:40:08;;;;;;;10.90;6.68;;;;;;;25.20;63.79;99903.84;5043304;28;20552;-75
2023/06/21 09:42:39;;;;;;;12.85;6.82;;;;;;;25.18;64.13;99903.38;5043674;28;20040;-77
2023/06/21 09:45:12;;;;;;;8.80;6.03;;;;;;;25.16;64.35;99905.72;5044285;28;20036;-74
2023/06/21 09:47:41;;;;;;;12.05;6.35;;;;;;;25.04;64.92;99901.84;5043605;28;20040;-74
2023/06/21 09:50:07;;;;;;;8.82;5.80;;;;;;;25.25;64.43;99905.50;5043395;28;20529;-74
2023/06/21 09:52:32;;;;;;;10.63;5.40;;;;;;;25.21;64.66;99904.63;5044041;28;20025;-73
2023/06/21 09:54:58;;;;;;;9.63;5.68;;;;;;;25.24;64.39;99912.28;5043991;28;20041;-74
2023/06/21 09:57:32;;;;;;;9.48;4.95;;;;;;;25.33;63.22;99912.06;5043630;28;20166;-74
2023/06/21 09:59:59;;;;;;;13.93;6.13;;;;;;;25.40;63.09;99912.25;5043675;28;20886;-75
2023/06/21 10:02:25;;;;;;;10.10;6.25;;;;;;;25.36;63.18;99911.34;5042758;28;20040;-74
2023/06/21 10:04:56;;;;;;;12.63;5.45;;;;;;;25.32;62.62;99910.47;5043730;28;20320;-74
2023/06/21 10:07:22;;;;;;;9.00;5.40;;;;;;;25.05;63.06;99917.41;5043766;28;20049;-74
2023/06/21 10:09:48;;;;;;;8.30;5.75;;;;;;;25.16;62.79;99919.66;5042892;28;20549;-74
2023/06/21 10:12:14;;;;;;;8.55;5.20;;;;;;;25.29;62.33;99932.31;5043751;28;20460;-73
2023/06/21 10:14:40;;;;;;;7.70;4.72;;;;;;;25.27;61.54;99931.88;5044077;28;20029;-75
2023/06/21 10:17:06;;;;;;;11.07;6.22;;;;;;;25.56;60.89;99931.75;5043719;28;20119;-75
2023/06/21 10:19:32;;;;;;;7.47;5.10;;;;;;;25.85;60.22;99928.81;5043211;28;20377;-75
2023/06/21 10:22:14;;;;;;;6.95;4.35;;;;;;;25.72;58.57;99928.94;5043661;28;20430;-76
2023/06/21 10:24:42;;;;;;;10.13;4.15;;;;;;;26.05;59.19;99931.59;5043752;28;20045;-75
2023/06/21 10:27:10;;;;;;;6.70;4.47;;;;;;;25.74;58.94;99926.59;5041776;28;20033;-74
2023/06/21 10:29:38;;;;;;;7.70;4.45;;;;;;;25.85;59.47;99935.19;5042578;28;20514;-73
2023/06/21 10:32:05;;;;;;;8.60;4.75;;;;;;;26.07;58.46;99944.03;5042691;28;20044;-75
2023/06/21 10:34:55;;;;;;;8.27;3.85;;;;;;;26.24;55.27;99941.94;5043230;28;20476;-74
2023/06/21 10:37:48;;;;;;;7.53;5.03;;;;;;;26.19;55.57;99945.88;5041116;28;20075;-74
2023/06/21 10:40:14;;;;;;;9.57;4.30;;;;;;;26.55;55.11;99947.75;5043409;28;20605;-76
2023/06/21 10:42:41;;;;;;;8.73;4.45;;;;;;;26.44;55.11;99962.34;5043454;28;20082;-75
2023/06/21 10:45:09;;;;;;;75.95;10.52;;;;;;;26.41;54.80;99951.09;5042964;28;20358;-71
2023/06/21 10:47:35;;;;;;;7.28;5.25;;;;;;;26.41;54.92;99954.69;5042266;28;20037;-72
2023/06/21 10:50:01;;;;;;;9.45;5.55;;;;;;;26.56;55.00;99952.19;5041815;28;20044;-72
2023/06/21 10:52:27;;;;;;;6.57;3.88;;;;;;;26.77;54.93;99956.53;5042772;28;20061;-72
2023/06/21 10:54:59;;;;;;;8.23;4.05;;;;;;;26.65;55.96;99957.53;5042076;28;20090;-71
2023/06/21 10:57:27;;;;;;;7.32;4.57;;;;;;;26.49;56.60;99966.81;5042994;28;20037;-70
2023/06/21 10:59:57;;;;;;;12.10;7.15;;;;;;;26.58;55.83;99967.38;5042051;28;20033;-71
2023/06/21 11:02:23;;;;;;;10.52;5.00;;;;;;;26.45;56.29;99965.94;5042727;28;20037;-71
2023/06/21 11:05:18;;;;;;;8.90;5.78;;;;;;;26.55;55.45;99961.75;5042732;28;20063;-71
2023/06/21 11:07:59;;;;;;;9.75;5.07;;;;;;;26.44;55.67;99967.94;5042430;28;20057;-73
2023/06/21 11:10:46;;;;;;;9.63;5.30;;;;;;;26.61;54.88;99976.22;5042849;28;20133;-72
2023/06/21 11:13:12;;;;;;;9.38;4.75;;;;;;;26.57;54.85;99976.97;5042565;28;20060;-72
2023/06/21 11:15:39;;;;;;;7.97;4.88;;;;;;;26.62;55.36;99967.47;5042853;28;20431;-71
2023/06/21 11:18:06;;;;;;;12.43;5.40;;;;;;;26.57;55.28;99974.16;5042139;28;20449;-71
2023/06/21 11:20:43;;;;;;;7.40;4.65;;;;;;;26.74;54.40;99962.88;5042449;28;20083;-72
2023/06/21 11:23:09;;;;;;;19.10;6.40;;;;;;;26.66;54.65;99968.34;5043045;28;20036;-71
2023/06/21 11:25:38;;;;;;;7.18;4.50;;;;;;;26.78;54.20;99972.16;5042609;28;20437;-71
2023/06/21 11:28:26;;;;;;;10.75;5.32;;;;;;;26.98;53.70;99967.31;5041982;28;20024;-72